sensor_id;sensor_type;location;lat;lon;timestamp;temperature;humidity
75509;DHT22;64214;47.250;11.332;2024-02-04T13:08:11;29.40;51.59
75509;DHT22;64214;47.250;11.332;2024-02-04T13:08:18;29.42;51.59
75509;DHT22;64214;47.250;11.332;2024-02-04T13:08:25;29.38;51.93
75509;DHT22;64214;47.250;11.332;2024-02-04T13:08:32;29.16;52.92
75509;DHT22;64214;47.250;11.332;2024-02-04T13:08:39;29.05;53.36
75509;DHT22;64214;47.250;11.332;2024-02-04T13:08:44;28.98;53.26
75509;DHT22;64214;47.250;11.332;2024-02-04T13:08:54;28.88;53.27
75509;DHT22;64214;47.250;11.332;2024-02-04T13:09:03;28.65;53.78
75509;DHT22;64214;47.250;11.332;2024-02-04T13:09:11;28.56;54.15
75509;DHT22;64214;47.250;11.332;2024-02-04T13:09:58;28.22;55.22
75509;DHT22;64214;47.250;11.332;2024-02-04T13:10:30;28.13;55.34
75509;DHT22;64214;47.250;11.332;2024-02-04T13:11:01;28.08;55.31
75509;DHT22;64214;47.250;11.332;2024-02-04T13:11:33;28.09;55.56
75509;DHT22;64214;47.250;11.332;2024-02-04T13:12:06;28.02;55.77
75509;DHT22;64214;47.250;11.332;2024-02-04T13:12:40;28.03;56.14
75509;DHT22;64214;47.250;11.332;2024-02-04T13:13:11;28.03;56.25
75509;DHT22;64214;47.250;11.332;2024-02-04T13:13:44;28.02;56.21
75509;DHT22;64214;47.250;11.332;2024-02-04T13:14:14;27.99;56.11
75509;DHT22;64214;47.250;11.332;2024-02-04T13:14:45;28.01;56.24
75509;DHT22;64214;47.250;11.332;2024-02-04T13:15:17;28.01;56.19
75509;DHT22;64214;47.250;11.332;2024-02-04T13:15:47;27.99;56.17
75509;DHT22;64214;47.250;11.332;2024-02-04T13:16:18;27.98;56.13
75509;DHT22;64214;47.250;11.332;2024-02-04T13:16:49;27.95;56.10
75509;DHT22;64214;47.250;11.332;2024-02-04T13:17:21;27.99;56.07
75509;DHT22;64214;47.250;11.332;2024-02-04T13:17:52;27.98;56.05
75509;DHT22;64214;47.250;11.332;2024-02-04T13:18:22;27.98;56.14
75509;DHT22;64214;47.250;11.332;2024-02-04T13:18:56;27.96;55.99
75509;DHT22;64214;47.250;11.332;2024-02-04T13:19:36;27.96;55.84
75509;DHT22;64214;47.250;11.332;2024-02-04T13:20:07;27.98;55.87
75509;DHT22;64214;47.250;11.332;2024-02-04T13:20:39;27.95;56.09
75509;DHT22;64214;47.250;11.332;2024-02-04T13:21:11;27.98;55.92
75509;DHT22;64214;47.250;11.332;2024-02-04T13:21:41;27.96;56.11
75509;DHT22;64214;47.250;11.332;2024-02-04T13:22:12;27.98;56.37
75509;DHT22;64214;47.250;11.332;2024-02-04T13:22:44;27.95;56.46
75509;DHT22;64214;47.250;11.332;2024-02-04T13:23:15;27.96;56.43
75509;DHT22;64214;47.250;11.332;2024-02-04T13:23:46;27.96;56.22
75509;DHT22;64214;47.250;11.332;2024-02-04T13:24:17;27.95;56.15
75509;DHT22;64214;47.250;11.332;2024-02-04T13:24:47;27.98;56.11
75509;DHT22;64214;47.250;11.332;2024-02-04T13:25:18;27.96;55.96
75509;DHT22;64214;47.250;11.332;2024-02-04T13:25:49;27.98;55.79
75509;DHT22;64214;47.250;11.332;2024-02-04T13:26:20;27.98;55.69
75509;DHT22;64214;47.250;11.332;2024-02-04T13:26:51;27.98;55.44
75509;DHT22;64214;47.250;11.332;2024-02-04T13:27:22;28.01;55.50
75509;DHT22;64214;47.250;11.332;2024-02-04T13:27:53;27.98;55.72
75509;DHT22;64214;47.250;11.332;2024-02-04T13:28:24;27.99;55.94
75509;DHT22;64214;47.250;11.332;2024-02-04T13:28:54;27.99;56.12
75509;DHT22;64214;47.250;11.332;2024-02-04T13:29:25;27.96;56.02
75509;DHT22;64214;47.250;11.332;2024-02-04T13:29:56;27.99;55.88
75509;DHT22;64214;47.250;11.332;2024-02-04T13:30:27;27.99;55.89
75509;DHT22;64214;47.250;11.332;2024-02-04T13:30:58;27.99;56.02
75509;DHT22;64214;47.250;11.332;2024-02-04T13:31:28;27.98;56.15
75509;DHT22;64214;47.250;11.332;2024-02-04T13:31:59;27.96;56.42
75509;DHT22;64214;47.250;11.332;2024-02-04T13:32:30;27.99;56.54
75509;DHT22;64214;47.250;11.332;2024-02-04T13:33:01;27.98;56.54
75509;DHT22;64214;47.250;11.332;2024-02-04T13:33:32;27.99;56.51
75509;DHT22;64214;47.250;11.332;2024-02-04T13:34:03;27.99;56.26
75509;DHT22;64214;47.250;11.332;2024-02-04T13:34:34;27.95;56.08
75509;DHT22;64214;47.250;11.332;2024-02-04T13:35:05;27.96;56.14
75509;DHT22;64214;47.250;11.332;2024-02-04T13:35:36;27.95;56.29
75509;DHT22;64214;47.250;11.332;2024-02-04T13:36:07;27.96;56.42
75509;DHT22;64214;47.250;11.332;2024-02-04T13:36:41;27.95;56.60
75509;DHT22;64214;47.250;11.332;2024-02-04T13:37:12;27.93;56.74
75509;DHT22;64214;47.250;11.332;2024-02-04T13:37:44;27.96;56.82
75509;DHT22;64214;47.250;11.332;2024-02-04T13:38:19;27.96;56.48
75509;DHT22;64214;47.250;11.332;2024-02-04T13:38:49;27.93;56.25
75509;DHT22;64214;47.250;11.332;2024-02-04T13:39:20;27.93;56.09
75509;DHT22;64214;47.250;11.332;2024-02-04T13:39:51;27.92;56.00
75509;DHT22;64214;47.250;11.332;2024-02-04T13:40:22;27.92;55.94
75509;DHT22;64214;47.250;11.332;2024-02-04T13:40:54;27.93;56.23
75509;DHT22;64214;47.250;11.332;2024-02-04T13:41:25;27.95;56.43
75509;DHT22;64214;47.250;11.332;2024-02-04T13:41:57;27.95;56.47
75509;DHT22;64214;47.250;11.332;2024-02-04T13:42:27;27.93;56.48
75509;DHT22;64214;47.250;11.332;2024-02-04T13:42:59;27.95;56.42
75509;DHT22;64214;47.250;11.332;2024-02-04T13:43:29;27.96;56.33
75509;DHT22;64214;47.250;11.332;2024-02-04T13:44:00;27.93;56.35
75509;DHT22;64214;47.250;11.332;2024-02-04T13:44:31;27.95;56.18
75509;DHT22;64214;47.250;11.332;2024-02-04T13:45:02;27.95;56.20
75509;DHT22;64214;47.250;11.332;2024-02-04T13:45:33;27.95;56.45
75509;DHT22;64214;47.250;11.332;2024-02-04T13:46:04;27.95;56.60
75509;DHT22;64214;47.250;11.332;2024-02-04T13:46:35;27.95;56.50
75509;DHT22;64214;47.250;11.332;2024-02-04T13:47:07;27.93;56.32
75509;DHT22;64214;47.250;11.332;2024-02-04T13:47:37;27.93;56.16
75509;DHT22;64214;47.250;11.332;2024-02-04T13:48:08;27.93;56.15
75509;DHT22;64214;47.250;11.332;2024-02-04T13:48:39;27.96;55.85
75509;DHT22;64214;47.250;11.332;2024-02-04T13:49:10;27.96;55.59
75509;DHT22;64214;47.250;11.332;2024-02-04T13:49:42;27.95;55.59
75509;DHT22;64214;47.250;11.332;2024-02-04T13:50:14;27.98;55.87
75509;DHT22;64214;47.250;11.332;2024-02-04T13:50:44;27.98;56.02
75509;DHT22;64214;47.250;11.332;2024-02-04T13:51:16;27.96;56.31
75509;DHT22;64214;47.250;11.332;2024-02-04T13:51:50;27.96;56.28
75509;DHT22;64214;47.250;11.332;2024-02-04T13:52:20;27.95;55.98
75509;DHT22;64214;47.250;11.332;2024-02-04T13:52:51;27.95;56.04
75509;DHT22;64214;47.250;11.332;2024-02-04T13:53:22;27.98;56.31
75509;DHT22;64214;47.250;11.332;2024-02-04T13:53:53;27.96;56.42
75509;DHT22;64214;47.250;11.332;2024-02-04T13:54:23;27.95;56.39
75509;DHT22;64214;47.250;11.332;2024-02-04T13:54:54;27.96;56.58
75509;DHT22;64214;47.250;11.332;2024-02-04T13:55:25;27.95;56.84
75509;DHT22;64214;47.250;11.332;2024-02-04T13:55:56;27.95;56.69
75509;DHT22;64214;47.250;11.332;2024-02-04T13:56:27;27.93;55.82
75509;DHT22;64214;47.250;11.332;2024-02-04T13:56:57;27.96;55.22
75509;DHT22;64214;47.250;11.332;2024-02-04T13:57:28;27.98;55.03
75509;DHT22;64214;47.250;11.332;2024-02-04T13:57:59;27.96;55.03
75509;DHT22;64214;47.250;11.332;2024-02-04T13:58:30;27.98;55.08
75509;DHT22;64214;47.250;11.332;2024-02-04T13:59:01;27.95;55.17
75509;DHT22;64214;47.250;11.332;2024-02-04T13:59:32;27.96;55.25
75509;DHT22;64214;47.250;11.332;2024-02-04T14:00:03;27.98;55.14
75509;DHT22;64214;47.250;11.332;2024-02-04T14:00:38;27.98;55.08
75509;DHT22;64214;47.250;11.332;2024-02-04T14:01:09;27.99;55.02
75509;DHT22;64214;47.250;11.332;2024-02-04T14:01:40;27.98;54.99
75509;DHT22;64214;47.250;11.332;2024-02-04T14:02:11;27.99;55.13
75509;DHT22;64214;47.250;11.332;2024-02-04T14:02:42;27.98;54.60
75509;DHT22;64214;47.250;11.332;2024-02-04T14:03:12;27.96;55.07
75509;DHT22;64214;47.250;11.332;2024-02-04T14:03:43;27.96;55.54
75509;DHT22;64214;47.250;11.332;2024-02-04T14:04:14;27.98;55.81
75509;DHT22;64214;47.250;11.332;2024-02-04T14:04:45;27.95;55.99
75509;DHT22;64214;47.250;11.332;2024-02-04T14:05:16;27.96;55.92
75509;DHT22;64214;47.250;11.332;2024-02-04T14:05:47;27.95;55.69
75509;DHT22;64214;47.250;11.332;2024-02-04T14:06:18;27.93;55.23
75509;DHT22;64214;47.250;11.332;2024-02-04T14:06:49;27.93;55.42
75509;DHT22;64214;47.250;11.332;2024-02-04T14:07:19;27.95;55.39
75509;DHT22;64214;47.250;11.332;2024-02-04T14:07:50;27.95;55.67
75509;DHT22;64214;47.250;11.332;2024-02-04T14:08:21;27.95;56.00
75509;DHT22;64214;47.250;11.332;2024-02-04T14:08:52;27.93;56.09
75509;DHT22;64214;47.250;11.332;2024-02-04T14:09:23;27.95;55.85
75509;DHT22;64214;47.250;11.332;2024-02-04T14:09:54;27.95;55.68
75509;DHT22;64214;47.250;11.332;2024-02-04T14:10:25;27.96;55.81
75509;DHT22;64214;47.250;11.332;2024-02-04T14:10:56;27.98;55.75
75509;DHT22;64214;47.250;11.332;2024-02-04T14:11:27;27.98;55.49
75509;DHT22;64214;47.250;11.332;2024-02-04T14:11:58;27.98;55.17
75509;DHT22;64214;47.250;11.332;2024-02-04T14:12:29;27.98;55.34
75509;DHT22;64214;47.250;11.332;2024-02-04T14:13:03;27.99;55.57
75509;DHT22;64214;47.250;11.332;2024-02-04T14:13:34;27.99;55.90
75509;DHT22;64214;47.250;11.332;2024-02-04T14:14:05;27.99;56.10
75509;DHT22;64214;47.250;11.332;2024-02-04T14:14:36;27.96;55.94
75509;DHT22;64214;47.250;11.332;2024-02-04T14:15:06;27.99;55.67
75509;DHT22;64214;47.250;11.332;2024-02-04T14:15:37;27.95;55.69
75509;DHT22;64214;47.250;11.332;2024-02-04T14:16:08;27.99;56.04
75509;DHT22;64214;47.250;11.332;2024-02-04T14:16:39;27.98;56.29
75509;DHT22;64214;47.250;11.332;2024-02-04T14:17:10;27.96;56.37
75509;DHT22;64214;47.250;11.332;2024-02-04T14:17:41;27.96;56.45
75509;DHT22;64214;47.250;11.332;2024-02-04T14:18:12;27.92;56.48
75509;DHT22;64214;47.250;11.332;2024-02-04T14:18:43;27.95;56.32
75509;DHT22;64214;47.250;11.332;2024-02-04T14:19:16;27.93;55.65
75509;DHT22;64214;47.250;11.332;2024-02-04T14:19:47;27.93;56.10
75509;DHT22;64214;47.250;11.332;2024-02-04T14:20:21;27.92;56.15
75509;DHT22;64214;47.250;11.332;2024-02-04T14:20:52;27.93;56.21
75509;DHT22;64214;47.250;11.332;2024-02-04T14:21:23;27.93;55.97
75509;DHT22;64214;47.250;11.332;2024-02-04T14:21:54;27.92;55.37
75509;DHT22;64214;47.250;11.332;2024-02-04T14:22:25;27.92;54.97
75509;DHT22;64214;47.250;11.332;2024-02-04T14:22:56;27.93;55.10
75509;DHT22;64214;47.250;11.332;2024-02-04T14:23:27;27.93;55.31
75509;DHT22;64214;47.250;11.332;2024-02-04T14:23:58;27.93;55.51
75509;DHT22;64214;47.250;11.332;2024-02-04T14:24:29;27.93;55.64
75509;DHT22;64214;47.250;11.332;2024-02-04T14:25:00;27.93;55.53
75509;DHT22;64214;47.250;11.332;2024-02-04T14:25:30;27.93;55.99
75509;DHT22;64214;47.250;11.332;2024-02-04T14:26:01;27.93;55.99
75509;DHT22;64214;47.250;11.332;2024-02-04T14:26:33;27.91;55.82
75509;DHT22;64214;47.250;11.332;2024-02-04T14:27:04;27.92;55.75
75509;DHT22;64214;47.250;11.332;2024-02-04T14:27:35;27.92;55.59
75509;DHT22;64214;47.250;11.332;2024-02-04T14:28:07;27.91;55.55
75509;DHT22;64214;47.250;11.332;2024-02-04T14:28:38;27.91;55.58
75509;DHT22;64214;47.250;11.332;2024-02-04T14:29:12;27.89;55.47
75509;DHT22;64214;47.250;11.332;2024-02-04T14:29:43;27.91;55.64
75509;DHT22;64214;47.250;11.332;2024-02-04T14:30:14;27.92;55.70
75509;DHT22;64214;47.250;11.332;2024-02-04T14:30:45;27.92;55.70
75509;DHT22;64214;47.250;11.332;2024-02-04T14:31:16;27.92;55.80
75509;DHT22;64214;47.250;11.332;2024-02-04T14:31:47;27.92;55.74
75509;DHT22;64214;47.250;11.332;2024-02-04T14:32:17;27.91;55.64
75509;DHT22;64214;47.250;11.332;2024-02-04T14:32:49;27.93;55.51
75509;DHT22;64214;47.250;11.332;2024-02-04T14:33:20;27.91;55.42
75509;DHT22;64214;47.250;11.332;2024-02-04T14:33:51;27.93;55.16
75509;DHT22;64214;47.250;11.332;2024-02-04T14:34:22;27.95;54.92
75509;DHT22;64214;47.250;11.332;2024-02-04T14:34:52;27.93;55.09
75509;DHT22;64214;47.250;11.332;2024-02-04T14:35:25;27.95;55.29
75509;DHT22;64214;47.250;11.332;2024-02-04T14:35:56;27.92;55.48
75509;DHT22;64214;47.250;11.332;2024-02-04T14:36:28;27.95;55.44
75509;DHT22;64214;47.250;11.332;2024-02-04T14:36:58;27.96;55.45
75509;DHT22;64214;47.250;11.332;2024-02-04T14:37:30;27.95;55.35
75509;DHT22;64214;47.250;11.332;2024-02-04T14:38:02;27.95;55.28
75509;DHT22;64214;47.250;11.332;2024-02-04T14:38:33;27.93;55.48
75509;DHT22;64214;47.250;11.332;2024-02-04T14:39:04;27.93;55.72
75509;DHT22;64214;47.250;11.332;2024-02-04T14:39:36;27.93;55.90
75509;DHT22;64214;47.250;11.332;2024-02-04T14:40:07;27.92;55.97
75509;DHT22;64214;47.250;11.332;2024-02-04T14:40:41;27.93;55.97
75509;DHT22;64214;47.250;11.332;2024-02-04T14:41:11;27.92;56.15
75509;DHT22;64214;47.250;11.332;2024-02-04T14:41:42;27.95;56.17
75509;DHT22;64214;47.250;11.332;2024-02-04T14:42:14;27.92;55.63
75509;DHT22;64214;47.250;11.332;2024-02-04T14:42:44;27.92;55.47
75509;DHT22;64214;47.250;11.332;2024-02-04T14:43:15;27.91;55.38
75509;DHT22;64214;47.250;11.332;2024-02-04T14:43:50;27.91;55.50
75509;DHT22;64214;47.250;11.332;2024-02-04T14:44:20;27.93;55.72
75509;DHT22;64214;47.250;11.332;2024-02-04T14:44:51;27.92;55.94
75509;DHT22;64214;47.250;11.332;2024-02-04T14:45:22;27.92;55.99
75509;DHT22;64214;47.250;11.332;2024-02-04T14:45:53;27.92;55.83
75509;DHT22;64214;47.250;11.332;2024-02-04T14:46:23;27.93;55.61
75509;DHT22;64214;47.250;11.332;2024-02-04T14:46:54;27.89;55.66
75509;DHT22;64214;47.250;11.332;2024-02-04T14:47:25;27.89;55.80
75509;DHT22;64214;47.250;11.332;2024-02-04T14:47:56;27.91;55.68
75509;DHT22;64214;47.250;11.332;2024-02-04T14:48:27;27.91;55.44
75509;DHT22;64214;47.250;11.332;2024-02-04T14:48:58;27.92;55.63
75509;DHT22;64214;47.250;11.332;2024-02-04T14:49:28;27.92;55.89
75509;DHT22;64214;47.250;11.332;2024-02-04T14:49:59;27.91;55.83
75509;DHT22;64214;47.250;11.332;2024-02-04T14:50:30;27.91;55.74
75509;DHT22;64214;47.250;11.332;2024-02-04T14:51:01;27.89;55.99
75509;DHT22;64214;47.250;11.332;2024-02-04T14:51:32;27.91;55.90
75509;DHT22;64214;47.250;11.332;2024-02-04T14:52:03;27.88;55.99
75509;DHT22;64214;47.250;11.332;2024-02-04T14:52:34;27.92;56.05
75509;DHT22;64214;47.250;11.332;2024-02-04T14:53:05;27.91;56.12
75509;DHT22;64214;47.250;11.332;2024-02-04T14:53:36;27.88;55.78
75509;DHT22;64214;47.250;11.332;2024-02-04T14:54:07;27.89;55.90
75509;DHT22;64214;47.250;11.332;2024-02-04T14:54:41;27.86;55.69
75509;DHT22;64214;47.250;11.332;2024-02-04T14:55:11;27.89;55.66
75509;DHT22;64214;47.250;11.332;2024-02-04T14:55:42;27.91;55.45
75509;DHT22;64214;47.250;11.332;2024-02-04T14:56:14;27.89;55.24
75509;DHT22;64214;47.250;11.332;2024-02-04T14:56:44;27.91;55.09
75509;DHT22;64214;47.250;11.332;2024-02-04T14:57:17;27.92;55.16
75509;DHT22;64214;47.250;11.332;2024-02-04T14:57:47;27.93;55.38
75509;DHT22;64214;47.250;11.332;2024-02-04T14:58:18;27.92;55.56
75509;DHT22;64214;47.250;11.332;2024-02-04T14:58:49;27.92;55.61
75509;DHT22;64214;47.250;11.332;2024-02-04T14:59:20;27.92;55.67
75509;DHT22;64214;47.250;11.332;2024-02-04T14:59:51;27.92;55.53
75509;DHT22;64214;47.250;11.332;2024-02-04T15:00:21;27.91;55.45
75509;DHT22;64214;47.250;11.332;2024-02-04T15:00:57;27.92;55.60
75509;DHT22;64214;47.250;11.332;2024-02-04T15:01:28;27.91;55.84
75509;DHT22;64214;47.250;11.332;2024-02-04T15:01:59;27.92;55.99
75509;DHT22;64214;47.250;11.332;2024-02-04T15:02:30;27.92;56.12
75509;DHT22;64214;47.250;11.332;2024-02-04T15:03:00;27.91;56.19
75509;DHT22;64214;47.250;11.332;2024-02-04T15:03:32;27.89;56.05
75509;DHT22;64214;47.250;11.332;2024-02-04T15:04:02;27.92;55.89
75509;DHT22;64214;47.250;11.332;2024-02-04T15:04:33;27.91;55.94
75509;DHT22;64214;47.250;11.332;2024-02-04T15:05:04;27.89;55.74
75509;DHT22;64214;47.250;11.332;2024-02-04T15:05:35;27.89;55.62
75509;DHT22;64214;47.250;11.332;2024-02-04T15:06:06;27.91;55.70
75509;DHT22;64214;47.250;11.332;2024-02-04T15:06:37;27.89;55.76
75509;DHT22;64214;47.250;11.332;2024-02-04T15:07:07;27.91;55.96
75509;DHT22;64214;47.250;11.332;2024-02-04T15:07:38;27.89;56.16
75509;DHT22;64214;47.250;11.332;2024-02-04T15:08:09;27.89;56.23
75509;DHT22;64214;47.250;11.332;2024-02-04T15:08:40;27.89;56.08
75509;DHT22;64214;47.250;11.332;2024-02-04T15:09:11;27.89;55.99
75509;DHT22;64214;47.250;11.332;2024-02-04T15:09:42;27.89;55.95
75509;DHT22;64214;47.250;11.332;2024-02-04T15:10:12;27.88;56.08
75509;DHT22;64214;47.250;11.332;2024-02-04T15:10:43;27.86;56.08
75509;DHT22;64214;47.250;11.332;2024-02-04T15:11:14;27.86;55.85
75509;DHT22;64214;47.250;11.332;2024-02-04T15:11:45;27.88;55.78
75509;DHT22;64214;47.250;11.332;2024-02-04T15:12:16;27.89;56.05
75509;DHT22;64214;47.250;11.332;2024-02-04T15:12:49;27.89;56.09
75509;DHT22;64214;47.250;11.332;2024-02-04T15:13:22;27.89;55.91
75509;DHT22;64214;47.250;11.332;2024-02-04T15:13:53;27.88;55.90
75509;DHT22;64214;47.250;11.332;2024-02-04T15:14:24;27.89;56.05
75509;DHT22;64214;47.250;11.332;2024-02-04T15:14:55;27.89;56.06
75509;DHT22;64214;47.250;11.332;2024-02-04T15:15:28;27.86;56.05
75509;DHT22;64214;47.250;11.332;2024-02-04T15:15:59;27.86;55.99
75509;DHT22;64214;47.250;11.332;2024-02-04T15:16:29;27.86;55.93
75509;DHT22;64214;47.250;11.332;2024-02-04T15:17:00;27.88;55.82
75509;DHT22;64214;47.250;11.332;2024-02-04T15:17:32;27.86;55.67
75509;DHT22;64214;47.250;11.332;2024-02-04T15:18:03;27.91;55.56
75509;DHT22;64214;47.250;11.332;2024-02-04T15:18:34;27.89;55.31
75509;DHT22;64214;47.250;11.332;2024-02-04T15:19:05;27.89;55.02
75509;DHT22;64214;47.250;11.332;2024-02-04T15:19:36;27.91;55.27
75509;DHT22;64214;47.250;11.332;2024-02-04T15:20:07;27.92;55.37
75509;DHT22;64214;47.250;11.332;2024-02-04T15:20:40;27.93;55.58
75509;DHT22;64214;47.250;11.332;2024-02-04T15:21:11;27.91;55.68
75509;DHT22;64214;47.250;11.332;2024-02-04T15:21:42;27.89;55.65
75509;DHT22;64214;47.250;11.332;2024-02-04T15:22:13;27.91;55.65
75509;DHT22;64214;47.250;11.332;2024-02-04T15:22:44;27.91;55.75
75509;DHT22;64214;47.250;11.332;2024-02-04T15:23:15;27.91;55.89
75509;DHT22;64214;47.250;11.332;2024-02-04T15:23:46;27.89;55.93
75509;DHT22;64214;47.250;11.332;2024-02-04T15:24:17;27.89;56.06
75509;DHT22;64214;47.250;11.332;2024-02-04T15:24:48;27.86;56.15
75509;DHT22;64214;47.250;11.332;2024-02-04T15:25:19;27.89;56.24
75509;DHT22;64214;47.250;11.332;2024-02-04T15:25:51;27.89;56.19
75509;DHT22;64214;47.250;11.332;2024-02-04T15:26:23;27.88;55.98
75509;DHT22;64214;47.250;11.332;2024-02-04T15:26:57;27.88;55.77
75509;DHT22;64214;47.250;11.332;2024-02-04T15:27:34;27.89;55.84
75509;DHT22;64214;47.250;11.332;2024-02-04T15:28:06;27.86;55.81
75509;DHT22;64214;47.250;11.332;2024-02-04T15:28:38;27.88;55.87
75509;DHT22;64214;47.250;11.332;2024-02-04T15:29:09;27.86;55.79
75509;DHT22;64214;47.250;11.332;2024-02-04T15:29:43;27.86;56.06
75509;DHT22;64214;47.250;11.332;2024-02-04T15:30:14;27.85;56.09
75509;DHT22;64214;47.250;11.332;2024-02-04T15:30:46;27.88;56.02
75509;DHT22;64214;47.250;11.332;2024-02-04T15:31:17;27.85;56.08
75509;DHT22;64214;47.250;11.332;2024-02-04T15:31:48;27.85;56.11
75509;DHT22;64214;47.250;11.332;2024-02-04T15:32:22;27.86;56.01
75509;DHT22;64214;47.250;11.332;2024-02-04T15:32:53;27.85;55.85
75509;DHT22;64214;47.250;11.332;2024-02-04T15:33:25;27.88;55.86
75509;DHT22;64214;47.250;11.332;2024-02-04T15:33:59;27.86;56.09
75509;DHT22;64214;47.250;11.332;2024-02-04T15:34:30;27.86;55.97
75509;DHT22;64214;47.250;11.332;2024-02-04T15:35:02;27.85;55.76
75509;DHT22;64214;47.250;11.332;2024-02-04T15:35:34;27.85;55.90
75509;DHT22;64214;47.250;11.332;2024-02-04T15:36:13;27.84;56.10
75509;DHT22;64214;47.250;11.332;2024-02-04T15:36:44;27.85;55.94
75509;DHT22;64214;47.250;11.332;2024-02-04T15:37:16;27.86;55.96
75509;DHT22;64214;47.250;11.332;2024-02-04T15:37:46;27.85;56.01
75509;DHT22;64214;47.250;11.332;2024-02-04T15:38:17;27.89;55.83
75509;DHT22;64214;47.250;11.332;2024-02-04T15:38:48;27.86;55.90
75509;DHT22;64214;47.250;11.332;2024-02-04T15:39:19;27.86;55.79
75509;DHT22;64214;47.250;11.332;2024-02-04T15:39:51;27.85;55.65
75509;DHT22;64214;47.250;11.332;2024-02-04T15:40:23;27.88;55.53
75509;DHT22;64214;47.250;11.332;2024-02-04T15:40:54;27.84;55.21
75509;DHT22;64214;47.250;11.332;2024-02-04T15:41:25;27.89;54.99
75509;DHT22;64214;47.250;11.332;2024-02-04T15:41:55;27.88;55.16
75509;DHT22;64214;47.250;11.332;2024-02-04T15:42:26;27.92;55.36
75509;DHT22;64214;47.250;11.332;2024-02-04T15:42:57;27.91;55.62
75509;DHT22;64214;47.250;11.332;2024-02-04T15:43:28;27.89;55.66
75509;DHT22;64214;47.250;11.332;2024-02-04T15:43:59;27.88;55.63
75509;DHT22;64214;47.250;11.332;2024-02-04T15:44:32;27.88;55.56
75509;DHT22;64214;47.250;11.332;2024-02-04T15:45:03;27.89;55.58
75509;DHT22;64214;47.250;11.332;2024-02-04T15:45:34;27.86;55.61
75509;DHT22;64214;47.250;11.332;2024-02-04T15:46:08;27.88;55.88
75509;DHT22;64214;47.250;11.332;2024-02-04T15:46:42;27.86;55.94
75509;DHT22;64214;47.250;11.332;2024-02-04T15:47:13;27.88;55.86
75509;DHT22;64214;47.250;11.332;2024-02-04T15:47:52;27.88;55.93
75509;DHT22;64214;47.250;11.332;2024-02-04T15:48:24;27.86;56.01
75509;DHT22;64214;47.250;11.332;2024-02-04T15:49:02;27.85;55.69
75509;DHT22;64214;47.250;11.332;2024-02-04T15:49:36;27.88;55.83
75509;DHT22;64214;47.250;11.332;2024-02-04T15:50:07;27.85;55.73
75509;DHT22;64214;47.250;11.332;2024-02-04T15:50:39;27.86;55.74
75509;DHT22;64214;47.250;11.332;2024-02-04T15:51:10;27.82;55.79
75509;DHT22;64214;47.250;11.332;2024-02-04T15:51:41;27.86;56.02
75509;DHT22;64214;47.250;11.332;2024-02-04T15:52:12;27.84;56.30
75509;DHT22;64214;47.250;11.332;2024-02-04T15:52:43;27.86;56.23
75509;DHT22;64214;47.250;11.332;2024-02-04T15:53:13;27.86;56.24
75509;DHT22;64214;47.250;11.332;2024-02-04T15:53:44;27.84;56.23
75509;DHT22;64214;47.250;11.332;2024-02-04T15:54:15;27.86;55.93
75509;DHT22;64214;47.250;11.332;2024-02-04T15:54:46;27.85;56.06
75509;DHT22;64214;47.250;11.332;2024-02-04T15:55:17;27.84;56.11
75509;DHT22;64214;47.250;11.332;2024-02-04T15:55:48;27.82;56.15
75509;DHT22;64214;47.250;11.332;2024-02-04T15:56:19;27.84;56.08
75509;DHT22;64214;47.250;11.332;2024-02-04T15:56:55;27.85;55.98
75509;DHT22;64214;47.250;11.332;2024-02-04T15:57:27;27.84;56.04
75509;DHT22;64214;47.250;11.332;2024-02-04T15:58:03;27.84;55.95
75509;DHT22;64214;47.250;11.332;2024-02-04T15:58:37;27.81;56.01
75509;DHT22;64214;47.250;11.332;2024-02-04T15:59:08;27.84;55.77
75509;DHT22;64214;47.250;11.332;2024-02-04T15:59:50;27.82;55.99
75509;DHT22;64214;47.250;11.332;2024-02-04T16:00:21;27.84;55.98
75509;DHT22;64214;47.250;11.332;2024-02-04T16:00:58;27.84;56.07
75509;DHT22;64214;47.250;11.332;2024-02-04T16:01:29;27.84;56.09
75509;DHT22;64214;47.250;11.332;2024-02-04T16:02:04;27.82;55.71
75509;DHT22;64214;47.250;11.332;2024-02-04T16:02:35;27.86;55.63
75509;DHT22;64214;47.250;11.332;2024-02-04T16:03:06;27.85;55.53
75509;DHT22;64214;47.250;11.332;2024-02-04T16:03:37;27.86;55.08
75509;DHT22;64214;47.250;11.332;2024-02-04T16:04:10;27.86;55.29
75509;DHT22;64214;47.250;11.332;2024-02-04T16:04:41;27.88;55.63
75509;DHT22;64214;47.250;11.332;2024-02-04T16:05:12;27.88;55.80
75509;DHT22;64214;47.250;11.332;2024-02-04T16:05:43;27.86;55.83
75509;DHT22;64214;47.250;11.332;2024-02-04T16:06:15;27.88;55.85
75509;DHT22;64214;47.250;11.332;2024-02-04T16:06:46;27.88;55.79
75509;DHT22;64214;47.250;11.332;2024-02-04T16:07:17;27.86;55.64
75509;DHT22;64214;47.250;11.332;2024-02-04T16:07:49;27.88;55.55
75509;DHT22;64214;47.250;11.332;2024-02-04T16:08:19;27.86;55.62
75509;DHT22;64214;47.250;11.332;2024-02-04T16:08:50;27.86;55.81
75509;DHT22;64214;47.250;11.332;2024-02-04T16:09:21;27.84;56.12
75509;DHT22;64214;47.250;11.332;2024-02-04T16:09:52;27.86;56.25
75509;DHT22;64214;47.250;11.332;2024-02-04T16:10:23;27.86;56.11
75509;DHT22;64214;47.250;11.332;2024-02-04T16:10:54;27.86;56.16
75509;DHT22;64214;47.250;11.332;2024-02-04T16:11:26;27.86;56.16
75509;DHT22;64214;47.250;11.332;2024-02-04T16:12:04;27.86;55.94
75509;DHT22;64214;47.250;11.332;2024-02-04T16:12:35;27.84;56.01
75509;DHT22;64214;47.250;11.332;2024-02-04T16:13:07;27.84;56.20
75509;DHT22;64214;47.250;11.332;2024-02-04T16:13:41;27.86;56.42
75509;DHT22;64214;47.250;11.332;2024-02-04T16:14:12;27.81;56.39
75509;DHT22;64214;47.250;11.332;2024-02-04T16:14:43;27.84;56.34
75509;DHT22;64214;47.250;11.332;2024-02-04T16:15:15;27.81;56.23
75509;DHT22;64214;47.250;11.332;2024-02-04T16:15:48;27.81;56.09
75509;DHT22;64214;47.250;11.332;2024-02-04T16:16:22;27.84;56.07
75509;DHT22;64214;47.250;11.332;2024-02-04T16:17:00;27.84;56.12
75509;DHT22;64214;47.250;11.332;2024-02-04T16:17:33;27.82;55.74
75509;DHT22;64214;47.250;11.332;2024-02-04T16:18:04;27.82;56.10
75509;DHT22;64214;47.250;11.332;2024-02-04T16:18:36;27.81;56.26
75509;DHT22;64214;47.250;11.332;2024-02-04T16:19:07;27.84;56.07
75509;DHT22;64214;47.250;11.332;2024-02-04T16:19:39;27.81;56.19
75509;DHT22;64214;47.250;11.332;2024-02-04T16:20:10;27.82;56.29
75509;DHT22;64214;47.250;11.332;2024-02-04T16:20:41;27.81;56.26